Date,TemperatureHighF,TemperatureAvgF,TemperatureLowF,DewpointHighF,DewpointAvgF,DewpointLowF,HumidityHigh,HumidityAvg,HumidityLow,PressureMaxIn,PressureMinIn,WindSpeedMaxMPH,WindSpeedAvgMPH,GustSpeedMaxMPH,PrecipitationSumIn
2013-2-1,33.6,26.8,20.1,26.4,13.8,0.9,88,58,40,30.16,29.74,14,8,24,0.00
2013-2-8,49.1,37.0,34.3,39.4,20.4,-99.9,71,57,55,29.99,-32.77,14,-36,24,0.01
2013-2-9,44.6,34.0,25.7,21.4,16.0,11.4,70,50,26,30.35,29.99,10,4,27,0.00
2013-2-10,41.7,32.7,20.1,28.1,17.3,12.2,80,55,37,30.44,30.18,13,6,20,0.00
2013-2-11,63.2,51.4,36.9,50.0,37.9,16.6,92,64,22,30.18,29.74,16,8,27,0.01
2013-2-12,59.8,48.7,40.6,26.6,22.3,15.9,52,37,19,29.93,29.77,14,6,22,0.00
2013-2-13,44.2,38.2,32.9,33.8,28.4,22.0,94,70,43,29.89,29.59,7,2,11,0.07
2013-2-14,48.9,37.4,28.6,31.4,26.7,23.5,94,68,38,30.00,29.77,7,2,10,0.01
2013-2-15,55.7,39.7,26.1,37.3,29.6,22.3,92,71,39,30.03,29.86,12,3,17,0.15
2013-2-16,35.4,32.5,25.2,33.3,25.1,13.4,94,75,55,29.96,29.80,9,3,14,0.00
2013-2-17,27.2,22.6,18.8,18.0,6.1,1.8,79,49,35,30.22,29.85,12,6,21,0.00
2013-2-18,45.2,32.0,16.0,23.0,13.2,6.2,69,47,31,30.36,30.11,11,4,15,0.00
2013-2-19,51.7,42.1,35.8,39.7,28.4,15.9,85,60,36,30.11,29.69,15,6,31,0.04
2013-2-20,40.4,32.7,25.3,16.5,13.3,11.6,58,45,32,30.12,29.85,12,6,19,0.00
2013-2-21,41.9,30.6,20.9,18.8,15.4,11.7,68,54,37,30.30,30.10,7,3,12,0.00
2013-2-22,34.1,31.3,28.3,27.3,22.5,16.5,81,70,54,30.33,30.13,10,5,14,0.02
2013-2-23,51.0,39.0,31.2,40.4,33.7,27.3,90,81,66,30.14,29.78,7,1,14,0.00
2013-2-24,52.7,40.8,30.9,37.9,27.6,20.0,94,65,29,30.07,29.78,11,4,18,0.01
2013-2-25,41.7,32.7,22.5,22.5,18.9,15.7,78,58,41,30.19,30.07,6,2,10,0.00
2013-2-26,39.6,35.4,30.6,37.2,28.6,19.4,94,77,55,30.17,29.60,9,3,14,1.04
2013-2-27,49.3,42.5,36.4,39.6,33.8,30.5,95,73,52,29.68,29.55,11,5,19,0.01
2013-2-28,41.5,37.9,34.5,31.8,26.7,22.7,77,64,50,29.74,29.61,12,5,20,0.00